createdAt,value
2018-07-28T00:00:06.505Z,25.30
2018-07-28T00:02:35.256Z,25.30
2018-07-28T00:05:04.549Z,25.30
2018-07-28T00:07:33.828Z,25.30
2018-07-28T00:10:04.342Z,25.30
2018-07-28T00:12:35.224Z,25.20
2018-07-28T00:15:06.620Z,25.20
2018-07-28T00:17:36.041Z,25.20
2018-07-28T00:20:05.762Z,25.20
2018-07-28T00:25:03.398Z,25.10
2018-07-28T00:27:33.134Z,25.10
2018-07-28T00:30:06.927Z,25.10
2018-07-28T00:32:38.114Z,25.10
2018-07-28T00:35:07.207Z,25.10
2018-07-28T00:37:36.211Z,25.20
2018-07-28T00:40:05.681Z,25.20
2018-07-28T00:42:35.394Z,25.20
2018-07-28T00:45:04.820Z,25.30
2018-07-28T00:47:34.648Z,25.20
2018-07-28T00:50:09.104Z,25.20
2018-07-28T00:52:38.836Z,25.10
2018-07-28T00:55:07.904Z,25.10
2018-07-28T00:57:36.576Z,25.00
2018-07-28T01:00:06.908Z,25.00
2018-07-28T01:02:38.051Z,25.00
2018-07-28T01:05:07.883Z,25.00
2018-07-28T01:07:36.676Z,25.00
2018-07-28T01:10:07.931Z,25.00
2018-07-28T01:12:37.249Z,25.00
2018-07-28T01:15:09.451Z,25.00
2018-07-28T01:17:41.024Z,25.10
2018-07-28T01:20:11.369Z,25.10
2018-07-28T01:22:41.375Z,25.10
2018-07-28T01:25:11.050Z,25.00
2018-07-28T01:27:40.228Z,25.00
2018-07-28T01:30:12.345Z,25.00
2018-07-28T01:32:41.024Z,25.10
2018-07-28T01:35:09.861Z,25.10
2018-07-28T01:37:38.619Z,25.10
2018-07-28T01:40:09.339Z,25.00
2018-07-28T01:42:38.064Z,25.00
2018-07-28T01:45:07.940Z,25.00
2018-07-28T01:47:37.040Z,25.00
2018-07-28T01:50:07.041Z,25.00
2018-07-28T01:52:39.908Z,25.00
2018-07-28T01:55:09.986Z,24.90
2018-07-28T01:57:38.798Z,24.90
2018-07-28T02:00:09.387Z,24.90
2018-07-28T02:02:38.987Z,24.90
2018-07-28T02:05:08.876Z,24.90
2018-07-28T02:07:37.869Z,24.80
2018-07-28T02:10:10.322Z,24.80
2018-07-28T02:12:40.909Z,24.80
2018-07-28T02:15:09.979Z,24.70
2018-07-28T02:17:39.284Z,24.60
2018-07-28T02:20:08.676Z,24.60
2018-07-28T02:22:37.724Z,24.60
2018-07-28T02:25:08.780Z,24.60
2018-07-28T02:27:43.400Z,24.50
2018-07-28T02:30:13.220Z,24.50
2018-07-28T02:32:42.130Z,24.40
2018-07-28T02:35:11.407Z,24.40
2018-07-28T02:37:41.804Z,24.40
2018-07-28T02:40:11.115Z,24.40
2018-07-28T02:42:42.113Z,24.30
2018-07-28T02:45:12.561Z,24.30
2018-07-28T02:47:44.301Z,24.30
2018-07-28T02:50:14.161Z,24.30
2018-07-28T02:52:45.040Z,24.30
2018-07-28T02:55:13.951Z,24.30
2018-07-28T02:57:44.253Z,24.20
2018-07-28T03:00:22.457Z,24.20
2018-07-28T03:02:52.892Z,24.20
2018-07-28T03:05:21.824Z,24.20
2018-07-28T03:07:52.298Z,24.20
2018-07-28T03:10:23.985Z,24.10
2018-07-28T03:12:56.445Z,24.20
2018-07-28T03:15:32.257Z,24.20
2018-07-28T03:18:07.967Z,24.20
2018-07-28T03:20:38.601Z,24.30
2018-07-28T03:25:41.621Z,24.40
2018-07-28T03:28:11.288Z,24.40
2018-07-28T03:30:39.990Z,24.40
2018-07-28T03:33:19.572Z,24.50
2018-07-28T03:35:48.299Z,24.50
2018-07-28T03:38:20.980Z,24.60
2018-07-28T03:40:58.057Z,24.60
2018-07-28T03:43:27.696Z,24.60
2018-07-28T03:45:59.844Z,24.50
2018-07-28T03:48:29.004Z,24.60
2018-07-28T03:51:04.240Z,24.60
2018-07-28T03:53:36.355Z,24.60
2018-07-28T03:56:06.815Z,24.50
2018-07-28T03:58:35.844Z,24.40
2018-07-28T04:01:04.608Z,24.50
2018-07-28T04:03:36.115Z,24.50
2018-07-28T04:06:04.904Z,24.50
2018-07-28T04:08:33.611Z,24.50
2018-07-28T04:11:02.503Z,24.40
2018-07-28T04:13:31.384Z,24.40
2018-07-28T04:16:00.058Z,24.40
2018-07-28T04:18:29.547Z,24.40
2018-07-28T04:21:01.527Z,24.30
2018-07-28T04:23:30.190Z,24.30
2018-07-28T04:25:58.913Z,24.20
2018-07-28T04:28:27.605Z,24.20
2018-07-28T04:30:56.316Z,24.10
2018-07-28T04:33:27.029Z,24.10
2018-07-28T04:35:56.935Z,24.00
2018-07-28T04:38:26.627Z,23.90
2018-07-28T04:40:55.431Z,23.90
2018-07-28T04:43:25.069Z,23.90
2018-07-28T04:45:54.651Z,23.90
2018-07-28T04:48:23.320Z,23.90
2018-07-28T04:50:53.378Z,23.90
2018-07-28T04:53:24.511Z,23.90
2018-07-28T04:55:54.155Z,23.90
2018-07-28T04:58:25.548Z,23.90
2018-07-28T05:00:56.753Z,23.90
2018-07-28T05:03:26.199Z,23.90
2018-07-28T05:05:56.116Z,23.90
2018-07-28T05:08:26.203Z,23.90
2018-07-28T05:10:55.385Z,23.90
2018-07-28T05:13:24.049Z,23.90
2018-07-28T05:18:25.200Z,23.90
2018-07-28T05:20:53.891Z,24.00
2018-07-28T05:23:23.136Z,24.00
2018-07-28T05:25:53.800Z,24.00
2018-07-28T05:28:22.460Z,24.00
2018-07-28T05:30:51.116Z,24.10
2018-07-28T05:33:20.130Z,24.20
2018-07-28T05:35:48.826Z,24.20
2018-07-28T05:38:18.104Z,24.30
2018-07-28T05:40:49.652Z,24.30
2018-07-28T05:43:19.579Z,24.40
2018-07-28T05:45:48.760Z,24.50
2018-07-28T05:48:18.124Z,24.50
2018-07-28T05:50:47.317Z,24.60
2018-07-28T05:53:18.407Z,24.60
2018-07-28T05:55:49.776Z,24.60
2018-07-28T05:58:18.468Z,24.70
2018-07-28T06:00:47.063Z,24.70
2018-07-28T06:03:15.691Z,24.80
2018-07-28T06:05:44.284Z,24.90
2018-07-28T06:08:12.981Z,25.10
2018-07-28T06:10:41.640Z,25.20
2018-07-28T06:13:10.276Z,25.40
2018-07-28T06:15:38.936Z,25.80
2018-07-28T06:18:07.556Z,26.00
2018-07-28T06:20:36.148Z,26.20
2018-07-28T06:23:04.905Z,26.20
2018-07-28T06:25:33.500Z,26.30
2018-07-28T06:28:02.168Z,26.30
2018-07-28T06:30:30.764Z,26.40
2018-07-28T06:32:59.371Z,26.40
2018-07-28T06:35:27.969Z,26.40
2018-07-28T06:37:56.622Z,26.40
2018-07-28T06:40:25.285Z,26.50
2018-07-28T06:42:53.932Z,26.40
2018-07-28T06:45:22.549Z,26.40
2018-07-28T06:47:51.143Z,26.50
2018-07-28T06:50:19.764Z,26.60
2018-07-28T06:52:48.390Z,26.80
2018-07-28T06:55:17.003Z,26.90
2018-07-28T06:57:45.621Z,27.10
2018-07-28T07:00:14.328Z,27.20
2018-07-28T07:02:42.953Z,27.50
2018-07-28T07:05:11.580Z,27.80
2018-07-28T07:07:40.223Z,28.10
2018-07-28T07:10:08.970Z,28.40
2018-07-28T07:12:37.608Z,28.40
2018-07-28T07:15:06.536Z,28.60
2018-07-28T07:17:35.188Z,28.90
2018-07-28T07:20:18.820Z,29.20
2018-07-28T07:22:47.500Z,29.40
2018-07-28T07:25:18.341Z,29.60
2018-07-28T07:27:46.983Z,30.00
2018-07-28T07:30:16.317Z,30.30
2018-07-28T07:32:45.012Z,30.50
2018-07-28T07:35:14.245Z,30.80
2018-07-28T07:37:43.595Z,31.20
2018-07-28T07:40:12.455Z,31.40
2018-07-28T07:42:41.228Z,31.60
2018-07-28T07:45:10.200Z,31.90
2018-07-28T07:47:39.681Z,31.90
2018-07-28T07:50:08.527Z,32.00
2018-07-28T07:52:37.268Z,32.10
2018-07-28T07:55:06.455Z,32.10
2018-07-28T07:57:35.296Z,32.30
2018-07-28T08:04:57.587Z,32.30
2018-07-28T08:07:26.896Z,32.40
2018-07-28T08:09:55.704Z,32.20
2018-07-28T08:12:24.555Z,32.10
2018-07-28T08:14:53.298Z,32.10
2018-07-28T08:17:22.117Z,32.10
2018-07-28T08:19:50.824Z,32.00
2018-07-28T08:22:19.676Z,31.90
2018-07-28T08:24:48.501Z,31.80
2018-07-28T08:27:17.198Z,31.70
2018-07-28T08:29:45.918Z,31.50
2018-07-28T08:32:14.552Z,31.30
2018-07-28T08:34:43.169Z,31.20
2018-07-28T08:37:11.861Z,31.10
2018-07-28T08:39:40.521Z,31.20
2018-07-28T08:42:09.188Z,31.40
2018-07-28T08:44:37.845Z,31.50
2018-07-28T08:47:06.665Z,31.60
2018-07-28T08:49:35.337Z,31.70
2018-07-28T08:52:03.982Z,31.70
2018-07-28T08:54:32.654Z,31.70
2018-07-28T08:57:01.288Z,31.70
2018-07-28T08:59:29.902Z,31.70
2018-07-28T09:01:58.548Z,31.70
2018-07-28T09:04:27.168Z,31.60
2018-07-28T09:06:55.788Z,31.70
2018-07-28T09:09:24.413Z,31.50
2018-07-28T09:11:53.040Z,31.50
2018-07-28T09:14:21.678Z,31.50
2018-07-28T09:16:50.292Z,31.40
2018-07-28T09:19:18.928Z,31.50
2018-07-28T09:21:47.596Z,31.70
2018-07-28T09:24:16.221Z,31.80
2018-07-28T09:26:44.863Z,32.00
2018-07-28T09:29:13.488Z,32.10
2018-07-28T09:31:42.121Z,32.10
2018-07-28T09:34:10.792Z,32.20
2018-07-28T09:36:39.401Z,32.30
2018-07-28T09:39:10.340Z,32.50
2018-07-28T09:41:39.010Z,32.50
2018-07-28T09:44:07.696Z,32.60
2018-07-28T09:46:36.643Z,32.70
2018-07-28T09:49:05.357Z,33.00
2018-07-28T09:51:34.040Z,33.10
2018-07-28T09:54:02.653Z,33.10
2018-07-28T09:56:31.270Z,33.10
2018-07-28T09:58:59.907Z,32.90
2018-07-28T10:01:28.549Z,32.70
2018-07-28T10:03:57.176Z,32.80
2018-07-28T10:06:27.096Z,32.90
2018-07-28T10:08:55.691Z,33.00
2018-07-28T10:11:24.320Z,33.10
2018-07-28T10:13:53.112Z,33.10
2018-07-28T10:16:21.893Z,33.00
2018-07-28T10:18:50.444Z,32.90
2018-07-28T10:21:19.061Z,32.90
2018-07-28T10:23:47.696Z,32.90
2018-07-28T10:26:16.291Z,33.00
2018-07-28T10:28:46.515Z,33.10
2018-07-28T10:31:15.152Z,33.20
2018-07-28T10:33:43.754Z,33.40
2018-07-28T10:36:12.374Z,33.60
2018-07-28T10:38:40.985Z,33.60
2018-07-28T10:41:09.645Z,33.60
2018-07-28T10:43:38.255Z,33.60
2018-07-28T10:46:07.024Z,33.80
2018-07-28T10:48:35.635Z,34.00
2018-07-28T10:51:04.593Z,34.10
2018-07-28T10:53:33.271Z,34.30
2018-07-28T10:56:01.948Z,34.40
2018-07-28T10:58:30.698Z,34.40
2018-07-28T11:00:59.496Z,34.40
2018-07-28T11:03:28.128Z,34.20
2018-07-28T11:05:56.736Z,34.10
2018-07-28T11:08:25.368Z,34.00
2018-07-28T11:10:54.056Z,34.10
2018-07-28T11:13:22.742Z,34.10
2018-07-28T11:15:51.343Z,34.00
2018-07-28T11:18:19.960Z,33.80
2018-07-28T11:20:48.588Z,33.60
2018-07-28T11:23:28.184Z,33.60
2018-07-28T11:25:57.015Z,33.50
2018-07-28T11:28:25.698Z,33.40
2018-07-28T11:30:54.307Z,33.30
2018-07-28T11:33:36.305Z,33.20
2018-07-28T11:38:50.345Z,33.00
2018-07-28T11:41:29.900Z,32.90
2018-07-28T11:44:09.856Z,32.90
2018-07-28T11:46:39.060Z,32.80
2018-07-28T11:49:08.744Z,32.70
2018-07-28T11:51:38.824Z,32.50
2018-07-28T11:54:07.444Z,32.50
2018-07-28T11:56:36.040Z,32.40
2018-07-28T11:59:04.672Z,32.10
2018-07-28T12:04:04.964Z,32.10
2018-07-28T12:06:34.080Z,32.00
2018-07-28T12:09:03.316Z,31.90
2018-07-28T12:11:31.982Z,31.90
2018-07-28T12:14:00.588Z,32.00
2018-07-28T12:16:29.245Z,32.00
2018-07-28T12:18:57.860Z,32.10
2018-07-28T12:21:26.523Z,32.20
2018-07-28T12:23:55.188Z,32.20
2018-07-28T12:26:23.859Z,32.20
2018-07-28T12:28:52.664Z,32.10
2018-07-28T12:31:21.295Z,32.00
2018-07-28T12:33:50.014Z,31.90
2018-07-28T12:36:18.685Z,31.80
2018-07-28T12:38:47.296Z,31.70
2018-07-28T12:41:15.921Z,31.80
2018-07-28T12:43:44.693Z,31.70
2018-07-28T12:46:13.512Z,31.80
2018-07-28T12:48:42.192Z,31.90
2018-07-28T12:51:10.859Z,32.00
2018-07-28T12:53:39.604Z,31.90
2018-07-28T12:56:08.316Z,32.00
2018-07-28T12:58:36.975Z,32.10
2018-07-28T13:01:05.648Z,32.10
2018-07-28T13:03:34.316Z,32.10
2018-07-28T13:06:02.945Z,32.00
2018-07-28T13:08:31.627Z,31.90
2018-07-28T13:11:00.355Z,31.90
2018-07-28T13:13:28.988Z,31.90
2018-07-28T13:15:57.840Z,31.70
2018-07-28T13:18:26.497Z,31.70
2018-07-28T13:20:55.582Z,31.70
2018-07-28T13:23:24.468Z,31.50
2018-07-28T13:25:53.116Z,31.60
2018-07-28T13:28:21.732Z,31.70
2018-07-28T13:30:50.383Z,31.90
2018-07-28T13:33:19.127Z,32.10
2018-07-28T13:35:47.794Z,32.00
2018-07-28T13:38:16.482Z,32.00
2018-07-28T13:41:04.668Z,32.00
2018-07-28T13:43:35.148Z,32.10
2018-07-28T13:46:03.971Z,32.10
2018-07-28T13:48:35.470Z,32.10
2018-07-28T13:51:04.329Z,32.20
2018-07-28T13:53:33.068Z,32.30
2018-07-28T13:56:02.011Z,32.40
2018-07-28T13:58:37.998Z,32.50
2018-07-28T14:01:06.630Z,32.60
2018-07-28T14:03:35.540Z,32.80
2018-07-28T14:06:07.414Z,33.00
2018-07-28T14:08:37.456Z,33.20
2018-07-28T14:13:35.241Z,33.50
2018-07-28T14:16:04.103Z,33.60
2018-07-28T14:18:32.972Z,33.60
2018-07-28T14:21:01.509Z,33.70
2018-07-28T14:23:30.255Z,33.70
2018-07-28T14:25:58.895Z,33.70
2018-07-28T14:28:27.939Z,33.80
2018-07-28T14:30:56.628Z,33.90
2018-07-28T14:33:25.853Z,33.80
2018-07-28T14:38:23.225Z,33.70
2018-07-28T14:40:53.335Z,33.70
2018-07-28T14:43:21.971Z,33.70
2018-07-28T14:45:50.685Z,33.60
2018-07-28T14:48:19.294Z,33.60
2018-07-28T14:50:48.043Z,33.60
2018-07-28T14:53:17.180Z,33.60
2018-07-28T14:55:45.923Z,33.50
2018-07-28T14:58:15.112Z,33.60
2018-07-28T15:00:44.104Z,33.70
2018-07-28T15:03:12.746Z,33.80
2018-07-28T15:05:41.594Z,33.80
2018-07-28T15:08:10.631Z,33.80
2018-07-28T15:10:48.240Z,33.80
2018-07-28T15:13:16.973Z,33.70
2018-07-28T15:15:45.670Z,33.70
2018-07-28T15:18:14.876Z,33.80
2018-07-28T15:20:49.250Z,33.80
2018-07-28T15:23:18.978Z,33.80
2018-07-28T15:26:02.151Z,33.80
2018-07-28T15:28:33.318Z,33.80
2018-07-28T15:31:09.629Z,33.80
2018-07-28T15:33:46.819Z,33.90
2018-07-28T15:36:15.524Z,33.90
2018-07-28T15:38:58.492Z,34.00
2018-07-28T15:41:30.051Z,34.00
2018-07-28T15:46:41.024Z,33.80
2018-07-28T15:49:11.394Z,33.70
2018-07-28T15:51:41.943Z,33.70
2018-07-28T15:54:12.060Z,33.60
2018-07-28T15:56:44.380Z,33.60
2018-07-28T15:59:29.157Z,33.50
2018-07-28T16:02:04.651Z,33.50
2018-07-28T16:04:35.045Z,33.50
2018-07-28T16:07:10.527Z,33.50
2018-07-28T16:09:39.648Z,33.50
2018-07-28T16:12:08.331Z,33.50
2018-07-28T16:14:37.088Z,33.50
2018-07-28T16:19:34.643Z,33.30
2018-07-28T16:22:03.324Z,33.30
2018-07-28T16:24:40.785Z,33.40
2018-07-28T16:27:09.502Z,33.30
2018-07-28T16:29:38.616Z,33.30
2018-07-28T16:32:07.232Z,33.30
2018-07-28T16:34:40.885Z,33.30
2018-07-28T16:37:15.697Z,33.20
2018-07-28T16:39:52.348Z,33.20
2018-07-28T16:42:24.282Z,33.10
2018-07-28T16:44:53.020Z,33.00
2018-07-28T16:47:21.763Z,33.00
2018-07-28T16:49:52.708Z,32.90
2018-07-28T16:52:22.004Z,32.90
2018-07-28T16:54:52.793Z,32.90
2018-07-28T16:57:21.893Z,32.80
2018-07-28T16:59:50.568Z,32.70
2018-07-28T17:02:19.184Z,32.60
2018-07-28T17:04:47.817Z,32.50
2018-07-28T17:07:16.555Z,32.50
2018-07-28T17:09:45.159Z,32.40
2018-07-28T17:12:13.771Z,32.40
2018-07-28T17:14:42.447Z,32.30
2018-07-28T17:17:11.116Z,32.30
2018-07-28T17:19:39.795Z,32.20
2018-07-28T17:22:08.597Z,32.20
2018-07-28T17:24:37.211Z,32.10
2018-07-28T17:27:05.932Z,32.10
2018-07-28T17:29:34.580Z,32.00
2018-07-28T17:32:04.821Z,32.00
2018-07-28T17:34:33.764Z,31.90
2018-07-28T17:37:16.136Z,31.90
2018-07-28T17:39:53.992Z,31.80
2018-07-28T17:45:06.802Z,31.60
2018-07-28T17:47:49.112Z,31.60
2018-07-28T17:50:18.767Z,31.50
2018-07-28T17:52:52.880Z,31.40
2018-07-28T17:55:21.650Z,31.40
2018-07-28T17:57:50.355Z,31.30
2018-07-28T18:00:19.036Z,31.40
2018-07-28T18:02:47.768Z,31.40
2018-07-28T18:05:16.853Z,31.40
2018-07-28T18:07:45.464Z,31.30
2018-07-28T18:10:14.139Z,31.30
2018-07-28T18:12:42.916Z,31.30
2018-07-28T18:15:11.711Z,31.30
2018-07-28T18:17:40.384Z,31.20
2018-07-28T18:20:09.088Z,31.20
2018-07-28T18:22:49.287Z,31.20
2018-07-28T18:25:17.953Z,31.10
2018-07-28T18:27:46.671Z,31.00
2018-07-28T18:30:15.661Z,31.00
2018-07-28T18:35:15.511Z,30.90
2018-07-28T18:37:44.254Z,30.80
2018-07-28T18:40:13.315Z,30.80
2018-07-28T18:42:43.859Z,30.80
2018-07-28T18:45:13.915Z,30.70
2018-07-28T18:47:48.573Z,30.70
2018-07-28T18:50:17.301Z,30.60
2018-07-28T18:52:45.919Z,30.50
2018-07-28T18:55:15.639Z,30.50
2018-07-28T18:57:44.340Z,30.40
2018-07-28T19:00:16.208Z,30.30
2018-07-28T19:02:45.314Z,30.20
2018-07-28T19:05:13.952Z,30.20
2018-07-28T19:07:42.618Z,30.10
2018-07-28T19:10:11.232Z,30.00
2018-07-28T19:12:45.183Z,29.90
2018-07-28T19:15:13.801Z,29.80
2018-07-28T19:17:50.022Z,29.70
2018-07-28T19:20:18.660Z,29.60
2018-07-28T19:22:52.584Z,29.50
2018-07-28T19:25:21.224Z,29.30
2018-07-28T19:27:56.839Z,29.30
2018-07-28T19:30:25.543Z,29.20
2018-07-28T19:32:54.164Z,29.10
2018-07-28T19:35:27.404Z,29.10
2018-07-28T19:37:56.084Z,28.90
2018-07-28T19:40:24.686Z,28.90
2018-07-28T19:42:53.314Z,28.80
2018-07-28T19:45:21.959Z,28.80
2018-07-28T19:47:50.568Z,28.80
2018-07-28T19:50:19.180Z,28.80
2018-07-28T19:52:48.263Z,28.70
2018-07-28T19:55:16.891Z,28.70
2018-07-28T19:57:47.016Z,28.50
2018-07-28T20:00:15.700Z,28.50
2018-07-28T20:02:44.400Z,28.40
2018-07-28T20:05:13.012Z,28.30
2018-07-28T20:07:41.676Z,28.20
2018-07-28T20:10:10.316Z,28.20
2018-07-28T20:12:38.967Z,28.20
2018-07-28T20:15:07.612Z,28.20
2018-07-28T20:17:36.249Z,28.20
2018-07-28T20:20:05.160Z,28.10
2018-07-28T20:22:33.769Z,28.20
2018-07-28T20:25:02.379Z,28.20
2018-07-28T20:27:31.016Z,28.20
2018-07-28T20:32:27.982Z,28.20
2018-07-28T20:34:56.600Z,28.30
2018-07-28T20:37:25.242Z,28.30
2018-07-28T20:39:53.912Z,28.30
2018-07-28T20:42:22.552Z,28.30
2018-07-28T20:44:51.243Z,28.30
2018-07-28T20:47:26.466Z,28.20
2018-07-28T20:49:55.251Z,28.10
2018-07-28T20:52:23.871Z,28.00
2018-07-28T20:54:52.492Z,28.00
2018-07-28T20:57:21.153Z,28.00
2018-07-28T20:59:49.880Z,28.00
2018-07-28T21:02:19.099Z,28.00
2018-07-28T21:04:54.558Z,27.90
2018-07-28T21:07:23.784Z,28.00
2018-07-28T21:09:52.452Z,27.90
2018-07-28T21:12:23.494Z,27.90
2018-07-28T21:14:52.160Z,27.90
2018-07-28T21:17:20.800Z,27.90
2018-07-28T21:19:49.599Z,27.80
2018-07-28T21:22:18.227Z,27.80
2018-07-28T21:24:46.824Z,27.70
2018-07-28T21:27:15.444Z,27.70
2018-07-28T21:29:44.032Z,27.70
2018-07-28T21:32:12.640Z,27.60
2018-07-28T21:34:41.231Z,27.50
2018-07-28T21:37:09.819Z,27.40
2018-07-28T21:39:38.436Z,27.40
2018-07-28T21:42:07.183Z,27.30
2018-07-28T21:44:35.790Z,27.20
2018-07-28T21:47:06.223Z,27.20
2018-07-28T21:49:34.843Z,27.30
2018-07-28T21:52:03.461Z,27.20
2018-07-28T21:54:32.080Z,27.10
2018-07-28T21:57:00.692Z,27.10
2018-07-28T21:59:29.355Z,27.10
2018-07-28T22:01:57.965Z,27.10
2018-07-28T22:06:57.359Z,26.90
2018-07-28T22:09:26.004Z,26.80
2018-07-28T22:11:54.609Z,26.70
2018-07-28T22:14:23.218Z,26.70
2018-07-28T22:16:51.811Z,26.50
2018-07-28T22:19:20.539Z,26.40
2018-07-28T22:21:49.240Z,26.30
2018-07-28T22:24:17.896Z,26.20
2018-07-28T22:26:46.536Z,26.10
2018-07-28T22:29:15.171Z,26.00
2018-07-28T22:31:43.801Z,26.00
2018-07-28T22:34:12.408Z,25.90
2018-07-28T22:39:10.530Z,26.00
2018-07-28T22:41:39.211Z,26.00
2018-07-28T22:44:07.932Z,26.00
2018-07-28T22:46:36.587Z,26.00
2018-07-28T22:49:05.213Z,26.00
2018-07-28T22:51:33.889Z,26.00
2018-07-28T22:54:02.531Z,26.00
2018-07-28T22:56:31.141Z,26.00
2018-07-28T22:59:09.865Z,26.00
2018-07-28T23:01:38.493Z,26.00
2018-07-28T23:04:07.229Z,25.90
2018-07-28T23:06:35.880Z,26.00
2018-07-28T23:09:07.038Z,25.90
2018-07-28T23:11:35.696Z,25.90
2018-07-28T23:14:04.352Z,25.90
2018-07-28T23:16:33.020Z,25.90
2018-07-28T23:19:01.680Z,25.80
2018-07-28T23:21:30.312Z,25.80
2018-07-28T23:23:58.930Z,25.80
2018-07-28T23:26:27.559Z,25.80
2018-07-28T23:28:56.207Z,25.70
2018-07-28T23:31:24.830Z,25.60
2018-07-28T23:33:53.526Z,25.50
2018-07-28T23:36:22.136Z,25.40
2018-07-28T23:38:50.752Z,25.30
2018-07-28T23:41:19.379Z,25.20
2018-07-28T23:43:48.008Z,25.10
2018-07-28T23:46:16.692Z,25.10
2018-07-28T23:48:45.337Z,25.00
2018-07-28T23:51:13.986Z,24.90
2018-07-28T23:53:42.607Z,24.90
2018-07-28T23:56:11.229Z,24.80
2018-07-28T23:58:39.839Z,24.80
